Time;durP1;ratioP1;P1;durP2;ratioP2;P2;SDS_P1;SDS_P2;PMS_P1;PMS_P2;Temp;Humidity;BMP_temperature;BMP_pressure;BME280_temperature;BME280_humidity;BME280_pressure;Samples;Min_cycle;Max_cycle;Signal;HPM_P1;HPM_P2
2022/03/16 00:00:29;;;;;;;170.72;83.50;;;;;;;3.80;65.09;98453.61;1747381;80;21391;-57
2022/03/16 00:02:58;;;;;;;141.22;73.47;;;;;;;3.76;65.64;98451.92;1774583;80;21010;-57
2022/03/16 00:05:26;;;;;;;123.75;62.53;;;;;;;3.72;66.97;98445.87;1768189;79;20994;-57
2022/03/16 00:07:54;;;;;;;146.18;67.87;;;;;;;3.71;65.81;98435.69;1744125;81;20967;-56
2022/03/16 00:10:21;;;;;;;137.20;65.42;;;;;;;3.73;64.92;98434.93;1749781;80;22424;-56
2022/03/16 00:12:48;;;;;;;145.00;69.42;;;;;;;3.76;65.24;98429.63;1774662;80;20973;-56
2022/03/16 00:15:15;;;;;;;152.57;72.05;;;;;;;3.73;65.91;98421.52;1750945;80;21387;-56
2022/03/16 00:17:42;;;;;;;146.37;69.67;;;;;;;3.73;64.98;98421.52;1743669;82;20962;-57
2022/03/16 00:20:11;;;;;;;142.43;69.03;;;;;;;3.76;65.12;98417.56;1748228;80;20961;-56
2022/03/16 00:22:38;;;;;;;154.78;72.53;;;;;;;3.79;64.26;98411.25;1743882;81;20990;-56
2022/03/16 00:25:07;;;;;;;147.47;73.97;;;;;;;3.79;64.51;98413.93;1761765;80;20954;-56
2022/03/16 00:27:34;;;;;;;;;;;;;;;3.80;66.45;98401.34;1758585;80;21025;-57
2022/03/16 00:30:00;;;;;;;133.00;63.80;;;;;;;3.80;65.13;98406.70;1744085;82;20163;-56
2022/03/16 00:32:27;;;;;;;126.27;60.20;;;;;;;3.76;65.90;98405.50;1743752;81;21030;-56
2022/03/16 00:34:54;;;;;;;104.23;49.15;;;;;;;3.77;64.73;98405.30;1744202;82;20994;-56
2022/03/16 00:37:21;;;;;;;111.75;56.28;;;;;;;3.77;64.38;98399.13;1743784;81;21510;-57
2022/03/16 00:39:48;;;;;;;106.85;50.48;;;;;;;3.74;65.25;98402.23;1743998;82;21447;-56
2022/03/16 00:42:15;;;;;;;110.70;54.77;;;;;;;3.71;65.04;98396.00;1743650;81;21022;-56
2022/03/16 00:44:42;;;;;;;120.97;55.05;;;;;;;3.67;65.73;98385.74;1756644;81;21021;-57
2022/03/16 00:47:09;;;;;;;137.10;65.72;;;;;;;3.67;64.63;98392.45;1748183;80;20959;-56
2022/03/16 00:49:36;;;;;;;139.45;65.57;;;;;;;3.64;65.29;98398.23;1744344;81;21429;-57
2022/03/16 00:52:04;;;;;;;173.15;80.55;;;;;;;3.62;65.72;98387.45;1744063;81;21454;-57
2022/03/16 00:54:31;;;;;;;180.40;82.73;;;;;;;3.67;64.95;98387.58;1694446;82;21447;-56
2022/03/16 00:56:58;;;;;;;170.85;82.67;;;;;;;3.73;64.63;98382.66;1770508;80;20977;-57
2022/03/16 00:59:25;;;;;;;160.37;71.15;;;;;;;3.76;65.03;98387.59;1774934;80;20947;-56
2022/03/16 01:01:52;;;;;;;122.87;65.25;;;;;;;3.79;65.04;98388.98;1770027;80;21395;-57
2022/03/16 01:04:19;;;;;;;121.92;55.95;;;;;;;3.79;65.11;98391.66;1762879;80;21385;-56
2022/03/16 01:06:46;;;;;;;141.37;66.72;;;;;;;3.79;64.74;98399.19;1743880;81;20986;-57
2022/03/16 01:09:13;;;;;;;122.92;57.48;;;;;;;3.79;64.34;98400.52;1744201;81;20927;-57
2022/03/16 01:11:40;;;;;;;128.27;59.45;;;;;;;3.74;65.61;98409.75;1744099;82;21458;-57
2022/03/16 01:14:07;;;;;;;119.90;60.48;;;;;;;3.75;64.76;98411.91;1744305;82;21046;-56
2022/03/16 01:16:35;;;;;;;116.35;57.00;;;;;;;3.77;64.80;98421.91;1744118;82;21388;-56
2022/03/16 01:19:02;;;;;;;114.25;52.50;;;;;;;3.75;64.78;98415.41;1743887;81;21054;-56
2022/03/16 01:21:29;;;;;;;87.17;42.27;;;;;;;3.77;64.55;98413.87;1743917;82;21018;-55
2022/03/16 01:23:56;;;;;;;67.45;34.85;;;;;;;3.95;64.54;98403.91;1744105;81;21046;-57
2022/03/16 01:26:22;;;;;;;27.75;14.07;;;;;;;4.15;64.55;98404.96;1748316;80;20985;-56
2022/03/16 01:28:49;;;;;;;40.03;20.82;;;;;;;4.44;64.97;98387.20;1743954;82;21447;-56
2022/03/16 01:31:19;;;;;;;19.87;11.25;;;;;;;4.83;64.62;98380.03;1744065;82;20974;-56
2022/03/16 01:33:46;;;;;;;15.45;9.68;;;;;;;5.16;64.49;98380.78;1743980;81;20975;-57
2022/03/16 01:36:13;;;;;;;16.65;9.60;;;;;;;5.41;64.19;98381.31;1743998;82;21407;-57
2022/03/16 01:38:40;;;;;;;18.30;9.93;;;;;;;5.60;63.87;98375.23;1743892;81;21018;-55
2022/03/16 01:41:07;;;;;;;18.62;9.63;;;;;;;5.78;63.69;98372.89;1744082;82;21354;-57
2022/03/16 01:43:34;;;;;;;16.40;9.73;;;;;;;5.93;63.40;98367.84;1746017;81;20970;-57
2022/03/16 01:46:01;;;;;;;27.27;11.68;;;;;;;6.03;63.17;98369.89;1758849;80;21411;-57
2022/03/16 01:48:28;;;;;;;21.00;12.60;;;;;;;6.12;62.91;98365.22;1743968;81;21002;-56
2022/03/16 01:50:55;;;;;;;29.18;13.75;;;;;;;6.21;62.66;98362.41;1744032;82;21124;-57
2022/03/16 01:53:21;;;;;;;27.05;11.80;;;;;;;6.27;62.40;98361.98;1744104;82;21388;-57
2022/03/16 01:55:48;;;;;;;22.87;11.28;;;;;;;6.32;62.05;98358.01;1708471;84;20979;-56
2022/03/16 01:58:17;;;;;;;14.65;9.95;;;;;;;6.44;61.94;98360.11;1708167;83;22149;-57
2022/03/16 02:00:44;;;;;;;15.10;8.38;;;;;;;6.52;62.08;98355.39;1754279;81;21388;-57
2022/03/16 02:03:11;;;;;;;15.88;9.88;;;;;;;6.60;62.22;98354.97;1708366;84;21093;-56
2022/03/16 02:05:38;;;;;;;19.10;10.30;;;;;;;6.59;62.68;98354.70;1743744;82;21419;-56
2022/03/16 02:08:08;;;;;;;20.50;10.10;;;;;;;6.60;62.55;98347.71;1743965;81;21558;-57
2022/03/16 02:10:35;;;;;;;15.60;9.73;;;;;;;6.57;62.60;98344.67;1745031;80;21084;-56
2022/03/16 02:13:02;;;;;;;16.60;9.60;;;;;;;6.56;63.05;98343.86;1743860;81;21502;-56
2022/03/16 02:15:29;;;;;;;14.55;9.70;;;;;;;6.55;62.85;98343.58;1763616;80;20946;-57
2022/03/16 02:17:56;;;;;;;13.15;9.88;;;;;;;6.52;63.35;98333.84;1744034;82;21038;-56
2022/03/16 02:20:27;;;;;;;17.62;9.53;;;;;;;6.47;63.52;98335.38;1744042;82;20980;-57
2022/03/16 02:22:59;;;;;;;15.38;9.98;;;;;;;6.44;63.77;98333.19;1743616;81;21277;-57
2022/03/16 02:25:27;;;;;;;18.20;10.82;;;;;;;6.41;63.72;98332.84;1755433;80;21017;-57
2022/03/16 02:27:54;;;;;;;20.30;10.83;;;;;;;6.38;64.59;98332.00;1751988;80;20981;-56
2022/03/16 02:30:24;;;;;;;14.83;10.03;;;;;;;6.32;65.14;98329.75;1744198;82;21423;-57
2022/03/16 02:32:51;;;;;;;18.00;10.98;;;;;;;6.25;65.38;98337.19;1743907;81;21014;-57
2022/03/16 02:35:18;;;;;;;19.55;12.73;;;;;;;6.16;66.03;98338.13;1748477;80;20986;-57
2022/03/16 02:37:45;;;;;;;21.15;11.33;;;;;;;6.08;65.93;98347.13;1744109;82;21026;-56
2022/03/16 02:40:23;;;;;;;17.48;10.95;;;;;;;5.94;72.19;98347.41;1744300;82;21513;-57
2022/03/16 02:42:50;;;;;;;20.80;12.77;;;;;;;5.91;67.72;98351.12;1759513;81;22103;-57
2022/03/16 02:45:18;;;;;;;20.27;12.68;;;;;;;5.86;68.84;98354.49;1747123;80;21300;-56
2022/03/16 02:47:45;;;;;;;22.15;12.75;;;;;;;5.74;70.23;98357.78;1774632;80;21017;-56
2022/03/16 02:50:12;;;;;;;25.70;14.30;;;;;;;5.66;72.53;98353.59;1756110;80;20994;-56
2022/03/16 02:52:40;;;;;;;23.05;14.10;;;;;;;5.54;71.80;98349.30;1744026;81;21013;-56
2022/03/16 02:55:07;;;;;;;22.30;14.43;;;;;;;5.46;74.17;98351.83;1729850;80;22287;-56
2022/03/16 02:57:35;;;;;;;22.85;14.07;;;;;;;5.36;74.17;98360.51;1744846;80;20946;-56
2022/03/16 03:00:04;;;;;;;23.05;13.72;;;;;;;5.32;73.82;98357.20;1744375;81;21041;-57
2022/03/16 03:02:31;;;;;;;23.35;15.05;;;;;;;5.25;74.83;98361.89;1743556;81;20971;-56
2022/03/16 03:04:58;;;;;;;19.45;13.00;;;;;;;5.16;76.77;98362.78;1744218;82;20947;-57
2022/03/16 03:07:25;;;;;;;24.67;13.08;;;;;;;5.09;74.47;98362.91;1771795;80;21305;-57
2022/03/16 03:09:52;;;;;;;19.40;13.38;;;;;;;5.04;75.94;98364.66;1756148;80;20970;-57
2022/03/16 03:12:19;;;;;;;26.93;16.05;;;;;;;4.97;75.53;98361.30;1738586;82;20962;-57
2022/03/16 03:14:46;;;;;;;29.95;17.45;;;;;;;4.91;76.43;98348.80;1741325;81;21447;-57
2022/03/16 03:17:13;;;;;;;20.77;15.18;;;;;;;4.90;74.84;98356.05;1744017;81;20962;-57
2022/03/16 03:19:41;;;;;;;30.25;19.30;;;;;;;4.91;74.58;98353.64;1743806;82;21057;-57
2022/03/16 03:22:09;;;;;;;22.58;14.10;;;;;;;4.88;74.60;98355.47;1743991;81;20978;-57
2022/03/16 03:24:36;;;;;;;27.02;18.27;;;;;;;4.88;74.66;98357.34;1744071;82;20990;-57
2022/03/16 03:27:03;;;;;;;57.93;26.50;;;;;;;4.87;75.33;98351.16;1727172;82;21127;-57
2022/03/16 03:29:30;;;;;;;33.58;20.25;;;;;;;4.85;80.51;98349.73;1744113;82;21411;-57
2022/03/16 03:31:57;;;;;;;22.05;14.58;;;;;;;4.80;76.72;98349.92;1743908;82;21384;-57
2022/03/16 03:34:24;;;;;;;23.77;13.75;;;;;;;4.76;76.59;98343.90;1744236;82;20959;-57
2022/03/16 03:36:51;;;;;;;19.02;12.47;;;;;;;4.74;75.58;98344.67;1744237;81;21019;-56
2022/03/16 03:39:17;;;;;;;17.32;11.45;;;;;;;4.69;84.33;98347.22;1744438;82;21045;-57
2022/03/16 03:41:44;;;;;;;20.92;12.43;;;;;;;4.65;83.63;98342.86;1744045;81;21034;-57
2022/03/16 03:44:11;;;;;;;20.25;12.55;;;;;;;4.59;85.86;98349.16;1744064;82;21435;-57
2022/03/16 03:46:38;;;;;;;20.88;13.50;;;;;;;4.57;83.41;98345.08;1744019;82;20951;-57
2022/03/16 03:49:05;;;;;;;25.62;14.60;;;;;;;4.58;80.94;98345.36;1743883;81;21380;-57
2022/03/16 03:51:32;;;;;;;21.10;14.20;;;;;;;4.57;80.97;98348.58;1744096;82;21438;-57
2022/03/16 03:53:59;;;;;;;27.77;16.55;;;;;;;4.56;79.85;98347.47;1743887;81;21038;-57
2022/03/16 03:56:26;;;;;;;47.88;27.32;;;;;;;4.56;80.06;98347.47;1744250;80;21323;-57
2022/03/16 03:58:52;;;;;;;32.98;19.50;;;;;;;4.56;79.31;98344.27;1743849;81;21045;-57
2022/03/16 04:01:19;;;;;;;24.80;13.95;;;;;;;4.57;78.90;98341.05;1748130;80;21474;-57
2022/03/16 04:03:46;;;;;;;20.97;13.38;;;;;;;4.55;79.40;98349.34;1743699;81;21014;-57
2022/03/16 04:06:13;;;;;;;28.38;16.10;;;;;;;4.52;80.23;98348.44;1744272;82;21030;-57
2022/03/16 04:08:42;;;;;;;32.05;19.32;;;;;;;4.49;79.56;98347.05;1747259;80;21392;-57
2022/03/16 04:11:09;;;;;;;40.78;23.05;;;;;;;4.51;79.60;98349.50;1754656;80;21006;-57
2022/03/16 04:13:36;;;;;;;54.40;31.27;;;;;;;4.52;79.23;98351.94;1743850;81;20993;-57
2022/03/16 04:16:04;;;;;;;60.23;36.10;;;;;;;4.51;79.27;98353.52;1763256;80;20942;-57
2022/03/16 04:18:31;;;;;;;61.53;38.88;;;;;;;4.50;79.06;98359.42;1774521;80;21410;-57
2022/03/16 04:20:58;;;;;;;39.18;27.17;;;;;;;4.49;79.13;98356.97;1760100;80;21072;-57
2022/03/16 04:23:25;;;;;;;41.68;25.65;;;;;;;4.48;79.47;98360.70;1743831;81;21021;-57
2022/03/16 04:25:52;;;;;;;26.93;18.48;;;;;;;4.43;83.37;98354.68;1744183;82;20994;-56
2022/03/16 04:28:19;;;;;;;24.92;15.63;;;;;;;4.41;80.12;98358.12;1771948;80;20946;-57
2022/03/16 04:30:46;;;;;;;23.98;16.15;;;;;;;4.40;81.25;98355.68;1744631;80;21447;-57
2022/03/16 04:33:12;;;;;;;26.82;15.45;;;;;;;4.37;81.29;98362.34;1743833;82;21337;-57
2022/03/16 04:35:39;;;;;;;32.73;22.00;;;;;;;4.34;80.44;98359.28;1744057;81;21002;-57
2022/03/16 04:38:08;;;;;;;22.02;13.98;;;;;;;4.32;80.67;98360.05;1743750;82;21053;-57
2022/03/16 04:40:36;;;;;;;25.17;14.83;;;;;;;4.26;82.90;98373.84;1744311;82;20967;-57
2022/03/16 04:43:03;;;;;;;17.23;10.75;;;;;;;4.19;87.24;98375.31;1743777;81;21097;-57
2022/03/16 04:45:29;;;;;;;16.10;10.00;;;;;;;4.15;85.05;98378.14;1751272;80;20939;-56
2022/03/16 04:47:56;;;;;;;12.13;9.20;;;;;;;4.12;84.02;98385.84;1774578;80;20949;-57
2022/03/16 04:50:23;;;;;;;19.20;12.47;;;;;;;4.10;83.27;98387.41;1749203;80;21360;-57
2022/03/16 04:52:50;;;;;;;12.30;8.85;;;;;;;4.08;82.56;98385.98;1743939;81;20959;-57
2022/03/16 04:55:17;;;;;;;14.53;9.60;;;;;;;4.02;83.06;98380.22;1744233;82;21045;-57
2022/03/16 04:57:45;;;;;;;15.53;9.98;;;;;;;3.94;82.82;98386.72;1743901;82;20988;-57
2022/03/16 05:00:12;;;;;;;17.92;10.68;;;;;;;3.86;87.43;98387.86;1744268;82;20951;-56
2022/03/16 05:02:39;;;;;;;17.25;10.63;;;;;;;3.83;88.25;98386.95;1744004;82;21017;-57
2022/03/16 05:05:09;;;;;;;17.87;9.70;;;;;;;3.84;86.49;98394.47;1742289;80;21014;-56
2022/03/16 05:07:38;;;;;;;17.00;8.63;;;;;;;3.80;89.18;98395.45;1744172;81;21064;-57
2022/03/16 05:10:06;;;;;;;15.23;9.43;;;;;;;3.77;86.57;98397.27;1750181;80;21423;-57
2022/03/16 05:12:42;;;;;;;15.45;9.38;;;;;;;3.76;86.48;98398.80;1745172;80;20962;-57
2022/03/16 05:15:15;;;;;;;19.10;11.68;;;;;;;3.76;85.02;98394.78;1743830;81;20975;-57
2022/03/16 05:17:42;;;;;;;14.93;10.72;;;;;;;3.80;84.51;98400.00;1743808;82;20962;-57
2022/03/16 05:20:10;;;;;;;18.90;11.45;;;;;;;3.82;83.99;98405.95;1743685;82;21048;-57
2022/03/16 05:22:51;;;;;;;18.12;12.03;;;;;;;3.84;83.65;98407.87;1743965;82;21427;-57
2022/03/16 05:25:21;;;;;;;20.40;13.50;;;;;;;3.87;84.08;98412.27;1707672;81;20971;-57
2022/03/16 05:27:48;;;;;;;30.15;17.95;;;;;;;3.88;83.40;98412.56;1742992;80;21046;-56
2022/03/16 05:30:15;;;;;;;45.60;23.35;;;;;;;3.91;84.08;98408.08;1727042;80;20961;-57
2022/03/16 05:32:43;;;;;;;21.40;13.53;;;;;;;3.93;83.39;98415.89;1774486;80;21485;-57
2022/03/16 05:35:12;;;;;;;36.77;18.70;;;;;;;3.92;83.17;98414.26;1752083;80;22117;-57
2022/03/16 05:37:40;;;;;;;29.15;17.90;;;;;;;3.89;83.32;98415.54;1780195;80;20988;-57
2022/03/16 05:40:08;;;;;;;72.00;29.18;;;;;;;3.86;84.02;98416.00;1772188;80;21478;-57
2022/03/16 05:42:35;;;;;;;27.70;17.02;;;;;;;3.88;83.52;98412.56;1723231;82;21025;-56
2022/03/16 05:45:03;;;;;;;29.85;19.60;;;;;;;3.92;83.17;98418.28;1758925;80;21060;-57
2022/03/16 05:47:29;;;;;;;27.58;18.50;;;;;;;3.96;83.31;98414.94;1743747;82;21679;-57
2022/03/16 05:49:56;;;;;;;21.27;14.60;;;;;;;3.98;83.52;98418.72;1751485;80;20993;-56
2022/03/16 05:52:24;;;;;;;18.92;13.03;;;;;;;3.96;83.63;98415.45;1743901;80;20962;-57
2022/03/16 05:54:54;;;;;;;22.77;14.45;;;;;;;3.91;83.97;98412.62;1753472;80;21017;-57
2022/03/16 05:57:21;;;;;;;22.25;13.98;;;;;;;3.87;83.67;98420.31;1754711;80;20986;-56
2022/03/16 05:59:48;;;;;;;22.20;14.07;;;;;;;3.85;83.42;98426.44;1747446;81;21365;-57
2022/03/16 06:02:15;;;;;;;20.75;15.40;;;;;;;3.83;83.48;98425.00;1747664;80;21414;-57
2022/03/16 06:04:43;;;;;;;22.52;16.07;;;;;;;3.85;83.16;98435.00;1748166;80;21006;-56
2022/03/16 06:07:10;;;;;;;25.10;18.42;;;;;;;3.86;82.96;98431.28;1744106;81;21436;-57
2022/03/16 06:09:37;;;;;;;36.58;31.75;;;;;;;3.85;83.25;98433.14;1742666;80;20998;-56
2022/03/16 06:12:06;;;;;;;27.52;19.75;;;;;;;3.83;83.40;98433.05;1766983;80;21408;-57
2022/03/16 06:14:32;;;;;;;27.02;18.17;;;;;;;3.82;83.41;98442.14;1753677;80;22524;-57
2022/03/16 06:16:59;;;;;;;24.10;16.27;;;;;;;3.81;83.54;98443.19;1752200;80;21076;-57
2022/03/16 06:19:26;;;;;;;28.23;17.80;;;;;;;3.81;83.10;98442.66;1753907;80;20990;-57
2022/03/16 06:21:53;;;;;;;30.00;20.43;;;;;;;3.83;83.06;98453.16;1752629;80;21081;-57
2022/03/16 06:24:20;;;;;;;31.15;21.60;;;;;;;3.83;84.08;98448.61;1753362;80;22061;-57
2022/03/16 06:26:47;;;;;;;29.85;20.25;;;;;;;3.83;83.26;98454.49;1752410;80;21482;-57
2022/03/16 06:29:14;;;;;;;32.00;21.62;;;;;;;3.81;83.82;98456.59;1759257;80;21001;-57
2022/03/16 06:31:41;;;;;;;31.55;22.27;;;;;;;3.84;83.50;98455.60;1751765;80;20971;-57
2022/03/16 06:34:08;;;;;;;33.48;22.15;;;;;;;3.82;84.11;98455.02;1761814;80;21048;-56
2022/03/16 06:36:35;;;;;;;35.17;20.97;;;;;;;3.84;83.92;98456.13;1746512;80;21940;-57
2022/03/16 06:39:01;;;;;;;27.93;17.20;;;;;;;3.84;83.92;98460.97;1755369;80;21011;-57
2022/03/16 06:41:28;;;;;;;38.08;23.18;;;;;;;3.89;84.13;98460.30;1750529;80;21085;-56
2022/03/16 06:43:55;;;;;;;48.95;31.80;;;;;;;3.90;83.84;98463.28;1743697;80;21050;-57
2022/03/16 06:46:22;;;;;;;98.40;45.58;;;;;;;3.93;83.78;98469.02;1753223;80;20967;-56
2022/03/16 06:48:49;;;;;;;65.42;34.58;;;;;;;3.97;84.03;98476.08;1746319;80;22110;-57
2022/03/16 06:51:16;;;;;;;39.18;25.90;;;;;;;3.98;83.60;98475.56;1759860;80;21140;-56
2022/03/16 06:53:43;;;;;;;40.52;27.20;;;;;;;4.02;83.68;98479.44;1752184;80;22089;-57
2022/03/16 06:56:10;;;;;;;42.53;23.12;;;;;;;4.02;83.69;98482.13;1741903;82;21056;-57
2022/03/16 06:58:37;;;;;;;37.50;22.07;;;;;;;4.00;85.00;98479.64;1750197;80;21090;-57
2022/03/16 07:01:04;;;;;;;36.25;21.93;;;;;;;4.01;85.21;98480.45;1749059;80;21001;-57
2022/03/16 07:03:31;;;;;;;40.03;23.25;;;;;;;4.02;85.00;98476.77;1751780;80;21096;-57
2022/03/16 07:05:57;;;;;;;34.48;21.65;;;;;;;4.00;84.56;98482.33;1748386;80;21472;-57
2022/03/16 07:08:24;;;;;;;33.50;20.95;;;;;;;4.01;84.58;98482.62;1748635;80;21091;-57
2022/03/16 07:10:51;;;;;;;35.70;22.22;;;;;;;4.04;84.43;98482.70;1750936;80;21064;-56
2022/03/16 07:13:18;;;;;;;33.75;18.82;;;;;;;4.04;84.42;98482.70;1744051;80;21103;-57
2022/03/16 07:15:45;;;;;;;36.53;20.27;;;;;;;4.07;84.33;98488.95;1751408;80;21521;-56
2022/03/16 07:18:12;;;;;;;48.70;27.35;;;;;;;4.09;84.37;98489.53;1749815;80;21385;-57
2022/03/16 07:20:39;;;;;;;79.72;41.35;;;;;;;4.07;84.38;98493.79;1748996;80;21012;-57
2022/03/16 07:23:14;;;;;;;111.52;55.52;;;;;;;4.08;84.56;98494.61;1755171;80;21515;-56
2022/03/16 07:25:48;;;;;;;148.87;69.40;;;;;;;4.07;84.61;98498.34;1728597;80;21321;-57
2022/03/16 07:28:15;;;;;;;149.07;79.12;;;;;;;4.06;84.94;98496.18;1747128;80;21056;-56
2022/03/16 07:30:42;;;;;;;128.97;68.80;;;;;;;4.03;84.58;98506.03;1727128;80;20962;-57
2022/03/16 07:33:10;;;;;;;51.05;28.00;;;;;;;4.08;84.41;98509.36;1752047;80;20978;-57
2022/03/16 07:35:38;;;;;;;43.52;26.95;;;;;;;4.14;84.70;98505.78;1742330;80;21042;-57
2022/03/16 07:38:06;;;;;;;34.75;22.42;;;;;;;4.12;85.15;98511.38;1748677;80;21500;-57
2022/03/16 07:40:35;;;;;;;36.15;23.45;;;;;;;4.15;84.70;98512.25;1751413;80;21078;-57
2022/03/16 07:43:02;;;;;;;40.17;25.23;;;;;;;4.20;84.67;98514.27;1726822;80;21033;-57
2022/03/16 07:45:30;;;;;;;55.08;34.85;;;;;;;4.26;84.95;98509.32;1699381;83;48227;-57
2022/03/16 07:47:57;;;;;;;57.83;30.77;;;;;;;4.26;84.57;98516.03;1745909;80;21514;-57
2022/03/16 07:50:24;;;;;;;53.20;31.23;;;;;;;4.28;84.48;98513.96;1746725;80;21029;-57
2022/03/16 07:52:51;;;;;;;51.73;30.37;;;;;;;4.30;84.58;98525.80;1745893;80;21037;-57
2022/03/16 07:55:18;;;;;;;38.55;27.05;;;;;;;4.30;84.96;98533.33;1754088;80;21026;-57
2022/03/16 07:57:45;;;;;;;37.78;25.35;;;;;;;4.32;86.50;98543.30;1753199;80;21100;-57
2022/03/16 08:00:13;;;;;;;38.58;25.70;;;;;;;4.33;85.03;98538.75;1753341;80;21361;-57
2022/03/16 08:02:43;;;;;;;43.42;25.10;;;;;;;4.30;85.36;98538.69;1753194;80;21778;-57
2022/03/16 08:05:10;;;;;;;;;;;;;;;4.29;87.98;98551.00;1755375;80;21135;-56
2022/03/16 08:07:36;;;;;;;44.03;28.15;;;;;;;4.30;86.38;98550.77;1751460;80;20165;-57
2022/03/16 08:10:05;;;;;;;46.13;28.30;;;;;;;4.29;85.31;98549.66;1752404;80;21048;-57
2022/03/16 08:12:32;;;;;;;55.80;34.60;;;;;;;4.24;85.29;98546.30;1751886;80;21572;-57
2022/03/16 08:15:00;;;;;;;38.15;25.10;;;;;;;4.22;85.70;98547.87;1751283;80;21029;-57
2022/03/16 08:17:27;;;;;;;43.50;30.00;;;;;;;4.23;85.64;98550.84;1754977;80;21104;-57
2022/03/16 08:19:54;;;;;;;46.28;27.70;;;;;;;4.15;86.87;98550.33;1748423;80;21049;-57
2022/03/16 08:22:29;;;;;;;40.85;25.72;;;;;;;4.17;87.18;98558.44;1749857;80;21131;-57
2022/03/16 08:24:57;;;;;;;44.05;30.50;;;;;;;4.24;86.34;98558.36;1732077;80;21099;-57
2022/03/16 08:27:24;;;;;;;42.67;26.82;;;;;;;4.31;88.37;98561.79;1758114;80;21423;-56
2022/03/16 08:29:51;;;;;;;50.60;29.00;;;;;;;4.38;86.41;98554.48;1754724;80;21064;-57
2022/03/16 08:32:18;;;;;;;51.00;32.90;;;;;;;4.44;85.95;98557.61;1750755;80;21014;-56
2022/03/16 08:34:45;;;;;;;73.95;40.58;;;;;;;4.48;85.78;98566.83;1739390;81;21039;-57
2022/03/16 08:37:12;;;;;;;76.62;43.00;;;;;;;4.59;85.60;98568.44;1750372;80;21485;-57
2022/03/16 08:39:39;;;;;;;72.62;43.63;;;;;;;4.74;85.44;98572.88;1752760;80;21425;-57
2022/03/16 08:42:06;;;;;;;63.35;41.28;;;;;;;4.81;85.22;98577.11;1749400;80;21057;-57
2022/03/16 08:44:34;;;;;;;55.45;32.80;;;;;;;4.90;85.34;98579.47;1751255;80;21660;-57
2022/03/16 08:47:00;;;;;;;90.22;47.30;;;;;;;5.02;85.63;98578.44;1748907;80;21408;-57
2022/03/16 08:49:29;;;;;;;85.35;45.60;;;;;;;5.01;85.42;98574.64;1753693;80;21025;-56
2022/03/16 08:51:57;;;;;;;86.42;44.25;;;;;;;5.12;85.71;98573.02;1743440;80;21475;-56
2022/03/16 08:54:26;;;;;;;54.73;36.20;;;;;;;5.26;85.80;98577.14;1748106;80;21012;-56
2022/03/16 08:56:53;;;;;;;242.10;103.02;;;;;;;5.32;85.55;98578.91;1755484;80;27083;-57
2022/03/16 08:59:20;;;;;;;69.05;41.08;;;;;;;5.44;86.04;98577.04;1753705;80;21181;-57
2022/03/16 09:01:47;;;;;;;51.80;30.32;;;;;;;5.66;85.82;98580.80;1750432;80;21022;-57
2022/03/16 09:04:14;;;;;;;439.87;168.05;;;;;;;5.89;85.30;98579.94;1750446;80;21036;-57
2022/03/16 09:06:41;;;;;;;154.10;68.62;;;;;;;5.99;85.17;98587.47;1741262;80;20982;-57
2022/03/16 09:09:08;;;;;;;108.75;45.08;;;;;;;6.07;85.19;98593.84;1752002;80;20970;-57
2022/03/16 09:11:35;;;;;;;162.53;68.67;;;;;;;6.17;84.91;98590.54;1752379;80;21121;-57
2022/03/16 09:14:02;;;;;;;73.12;37.60;;;;;;;6.14;84.80;98596.38;1750939;80;21056;-57
2022/03/16 09:16:29;;;;;;;67.00;35.23;;;;;;;6.16;84.29;98595.64;1751410;80;21099;-57
2022/03/16 09:18:56;;;;;;;111.75;53.20;;;;;;;6.13;84.43;98595.56;1744701;80;21820;-57
2022/03/16 09:21:25;;;;;;;73.65;40.92;;;;;;;6.20;84.35;98587.36;1750291;80;21123;-57
2022/03/16 09:23:53;;;;;;;61.35;33.10;;;;;;;6.40;84.26;98597.19;1744180;80;21151;-57
2022/03/16 09:26:25;;;;;;;38.63;25.77;;;;;;;6.53;84.11;98596.11;1746739;80;20982;-57
2022/03/16 09:28:49;;;;;;;37.05;25.17;;;;;;;6.59;83.61;98601.89;1742276;80;21112;-57
2022/03/16 09:31:17;;;;;;;69.35;36.55;;;;;;;6.66;83.65;98598.50;1758102;80;21036;-57
2022/03/16 09:33:43;;;;;;;109.10;61.45;;;;;;;6.73;82.87;98604.57;1752361;80;21041;-57
2022/03/16 09:36:10;;;;;;;42.25;29.32;;;;;;;6.73;82.92;98604.57;1752562;80;21249;-58
2022/03/16 09:38:37;;;;;;;42.85;31.95;;;;;;;6.79;83.01;98609.00;1750710;80;21493;-57
2022/03/16 09:41:04;;;;;;;39.53;27.50;;;;;;;6.90;82.66;98622.66;1745395;80;21423;-56
2022/03/16 09:43:33;;;;;;;34.30;22.48;;;;;;;6.82;82.57;98621.16;1741043;80;21072;-57
2022/03/16 09:46:07;;;;;;;35.10;24.30;;;;;;;6.90;82.12;98623.47;1752568;80;21020;-57
2022/03/16 09:48:34;;;;;;;31.97;23.50;;;;;;;6.77;81.71;98628.64;1742349;80;21042;-57
2022/03/16 09:51:01;;;;;;;35.68;23.83;;;;;;;6.62;82.02;98627.52;1747604;80;21059;-57
2022/03/16 09:53:28;;;;;;;37.20;25.48;;;;;;;6.64;81.94;98632.95;1755061;80;21822;-57
2022/03/16 09:55:55;;;;;;;34.88;22.87;;;;;;;6.67;81.83;98641.09;1763285;80;21478;-57
2022/03/16 09:58:22;;;;;;;45.43;25.23;;;;;;;6.68;81.86;98642.73;1745344;80;21454;-58
2022/03/16 10:00:50;;;;;;;35.48;22.37;;;;;;;6.71;81.45;98652.48;1758002;80;20994;-57
2022/03/16 10:03:17;;;;;;;36.90;24.77;;;;;;;6.77;81.36;98645.33;1744565;80;21088;-57
2022/03/16 10:05:50;;;;;;;39.13;25.70;;;;;;;6.79;81.13;98649.41;1751837;80;21029;-57
2022/03/16 10:08:34;;;;;;;39.08;25.48;;;;;;;6.89;81.28;98646.63;1753239;80;21028;-57
2022/03/16 10:13:57;;;;;;;41.18;26.73;;;;;;;7.16;80.66;98651.70;1751385;80;21423;-57
2022/03/16 10:16:23;;;;;;;35.78;22.77;;;;;;;7.43;80.06;98659.99;1751765;80;21020;-57
2022/03/16 10:18:55;;;;;;;37.83;25.08;;;;;;;7.49;79.70;98666.30;1752568;80;21322;-58
2022/03/16 10:21:23;;;;;;;33.92;22.07;;;;;;;7.54;79.51;98661.83;1753066;80;22053;-57
2022/03/16 10:23:50;;;;;;;35.80;23.62;;;;;;;7.67;79.14;98657.97;1754230;80;21507;-58
2022/03/16 10:26:18;;;;;;;37.20;25.12;;;;;;;7.99;78.58;98666.30;1751189;80;21055;-57
2022/03/16 10:28:48;;;;;;;35.38;24.30;;;;;;;8.23;77.84;98663.41;1753223;80;21006;-57
2022/03/16 10:31:17;;;;;;;34.33;21.65;;;;;;;8.27;77.87;98659.13;1754340;80;21637;-57
2022/03/16 10:33:51;;;;;;;35.43;24.65;;;;;;;8.32;76.09;98652.47;1748318;80;21378;-57
2022/03/16 10:36:21;;;;;;;37.70;25.82;;;;;;;8.32;76.09;98652.47;1741959;80;21036;-57
2022/03/16 10:39:03;;;;;;;34.05;24.00;;;;;;;8.44;76.26;98663.98;1750454;80;21078;-57
2022/03/16 10:47:18;;;;;;;38.50;23.77;;;;;;;8.14;75.72;98681.38;1751721;80;21160;-57
2022/03/16 10:49:46;;;;;;;38.08;23.30;;;;;;;8.10;75.73;98687.51;1750119;80;21056;-57
2022/03/16 10:52:17;;;;;;;31.85;20.02;;;;;;;8.01;76.07;98688.99;1748397;80;21687;-57
2022/03/16 10:54:43;;;;;;;32.48;22.80;;;;;;;8.24;75.86;98697.44;1751947;80;21025;-57
2022/03/16 10:57:10;;;;;;;35.78;23.02;;;;;;;8.57;75.71;98699.29;1750211;80;21050;-57
2022/03/16 10:59:38;;;;;;;36.50;24.77;;;;;;;8.77;75.30;98703.59;1752990;80;21077;-57
2022/03/16 11:02:07;;;;;;;33.92;23.15;;;;;;;8.69;74.16;98703.48;1751760;80;21182;-56
2022/03/16 11:04:34;;;;;;;36.10;22.75;;;;;;;8.95;74.52;98699.21;1753075;80;21123;-57
2022/03/16 11:07:02;;;;;;;40.67;26.90;;;;;;;9.18;74.22;98692.72;1744397;80;21175;-57
2022/03/16 11:09:31;;;;;;;41.05;27.05;;;;;;;9.27;72.85;98695.79;1734531;80;21718;-57
2022/03/16 11:14:44;;;;;;;38.38;24.02;;;;;;;9.01;74.11;98698.75;1751928;80;21206;-57
2022/03/16 11:17:11;;;;;;;39.13;26.33;;;;;;;8.90;74.19;98705.11;1735365;80;20966;-57
2022/03/16 11:19:38;;;;;;;39.88;26.17;;;;;;;8.87;73.72;98701.55;1737923;80;21072;-57
2022/03/16 11:22:10;;;;;;;36.00;24.90;;;;;;;8.66;72.91;98704.00;1749059;80;22071;-57
2022/03/16 11:24:42;;;;;;;39.73;27.52;;;;;;;8.80;73.34;98705.78;1748375;80;21539;-57
2022/03/16 11:27:27;;;;;;;36.50;22.98;;;;;;;8.88;73.55;98709.93;1758764;80;21005;-56
2022/03/16 11:30:14;;;;;;;45.70;28.38;;;;;;;8.81;72.79;98704.73;1748981;80;21104;-57
2022/03/16 11:32:43;;;;;;;30.97;23.40;;;;;;;8.90;73.25;98704.58;1743740;80;21087;-57
2022/03/16 11:35:16;;;;;;;39.35;24.50;;;;;;;8.66;72.44;98709.41;1747554;80;21059;-58
2022/03/16 11:37:50;;;;;;;40.88;24.95;;;;;;;8.59;73.14;98707.95;1749261;80;21541;-57